Time;durP1;ratioP1;P1;durP2;ratioP2;P2;SDS_P1;SDS_P2;PMS_P1;PMS_P2;Temp;Humidity;BMP_temperature;BMP_pressure;BME280_temperature;BME280_humidity;BME280_pressure;Samples;Min_cycle;Max_cycle;Signal;HPM_P1;HPM_P2
2023/06/24 00:01:04;;;;;;;;;;;;;;;19.05;90.54;100079.25;4474561;31;34854;-86
2023/06/24 00:03:37;;;;;;;;;;;;;;;19.32;90.32;100083.12;4485327;31;34072;-85
2023/06/24 00:06:04;;;;;;;;;;;;;;;19.38;89.84;100083.22;4485396;31;34762;-85
2023/06/24 00:08:36;;;;;;;;;;;;;;;19.32;89.73;100077.00;4493703;31;33179;-85
2023/06/24 00:11:03;;;;;;;;;;;;;;;19.17;90.72;100077.69;4479278;31;33522;-85
2023/06/24 00:13:30;;;;;;;;;;;;;;;19.08;90.87;100074.91;4483322;32;34140;-84
2023/06/24 00:15:58;;;;;;;;;;;;;;;19.07;91.54;100078.41;4491100;31;34691;-86
2023/06/24 00:18:29;;;;;;;;;;;;;;;19.22;91.72;100070.75;4485319;31;32917;-83
2023/06/24 00:20:56;;;;;;;;;;;;;;;19.02;91.87;100071.31;4481000;32;32719;-84
2023/06/24 00:23:26;;;;;;;;;;;;;;;18.99;92.19;100063.41;4484894;31;33920;-86
2023/06/24 00:25:54;;;;;;;;;;;;;;;19.13;91.85;100052.25;4471560;31;33308;-85
2023/06/24 00:28:21;;;;;;;;;;;;;;;19.16;90.74;100065.38;4489989;31;33086;-87
2023/06/24 00:30:49;;;;;;;;;;;;;;;19.23;90.73;100056.75;4484740;31;33658;-85
2023/06/24 00:33:19;;;;;;;;;;;;;;;19.07;91.72;100062.66;4484420;31;34166;-86
2023/06/24 00:35:46;;;;;;;;;;;;;;;19.10;90.79;100062.69;4488763;31;34746;-85
2023/06/24 00:38:14;;;;;;;;;;;;;;;19.15;91.26;100059.25;4479277;31;33213;-86
2023/06/24 00:40:42;;;;;;;;;;;;;;;19.03;91.42;100054.72;4484431;31;34740;-83
2023/06/24 00:43:09;;;;;;;;;;;;;;;19.01;91.70;100056.44;4485035;31;33657;-87
2023/06/24 00:45:36;;;;;;;;;;;;;;;19.02;91.93;100041.56;4484921;32;34120;-86
2023/06/24 00:48:04;;;;;;;;;;;;;;;18.92;92.80;100045.81;4485070;32;34161;-85
2023/06/24 00:50:32;;;;;;;;;;;;;;;19.00;91.51;100038.91;4471061;32;33397;-86
2023/06/24 00:52:59;;;;;;;;;;;;;;;19.14;90.96;100040.84;4484697;31;34789;-87
2023/06/24 00:55:28;;;;;;;;;;;;;;;19.10;91.25;100039.06;4487795;31;33204;-86
2023/06/24 00:57:57;;;;;;;;;;;;;;;19.05;90.88;100045.13;4484310;31;33392;-85
2023/06/24 01:00:25;;;;;;;;;;;;;;;19.01;90.10;100045.94;4484413;31;33993;-87
2023/06/24 01:02:52;;;;;;;;;;;;;;;19.02;91.42;100036.31;4488492;31;34910;-86
2023/06/24 01:05:23;;;;;;;;;;;;;;;19.02;90.60;100031.94;4484537;31;34362;-85
2023/06/24 01:07:55;;;;;;;;;;;;;;;18.87;90.90;100031.72;4477735;31;33575;-86
2023/06/24 01:10:23;;;;;;;;;;;;;;;18.83;90.17;100025.56;4497979;31;34764;-86
2023/06/24 01:12:51;;;;;;;;;;;;;;;18.93;89.95;100021.34;4488500;31;34701;-86
2023/06/24 01:15:19;;;;;;;;;;;;;;;18.90;89.47;100018.66;4484185;31;33785;-84
2023/06/24 01:17:59;;;;;;;;;;;;;;;19.08;89.09;100025.03;4484575;32;31965;-85
2023/06/24 01:20:28;;;;;;;;;;;;;;;19.22;87.50;100023.47;4487288;31;34705;-84
2023/06/24 01:23:06;;;;;;;;;;;;;;;19.09;87.86;100021.56;4470305;31;34435;-84
2023/06/24 01:25:55;;;;;;;;;;;;;;;18.94;88.61;100012.59;4484727;32;34195;-84
2023/06/24 01:28:42;;;;;;;;;;;;;;;18.97;87.75;100020.50;4484346;31;33359;-86
2023/06/24 01:31:28;;;;;;;;;;;;;;;19.01;87.56;100014.44;4454013;31;34133;-85
2023/06/24 01:34:00;;;;;;;;;;;;;;;18.81;88.18;100015.88;4484367;32;33999;-85
2023/06/24 01:36:28;;;;;;;;;;;;;;;18.98;86.99;100008.25;4474418;31;34206;-83
2023/06/24 01:39:04;;;;;;;;;;;;;;;18.92;86.73;100008.19;4473401;32;33487;-84
2023/06/24 01:41:33;;;;;;;;;;;;;;;18.98;86.68;99996.00;4487154;31;34265;-86
2023/06/24 01:44:00;;;;;;;;;;;;;;;18.85;86.82;100001.94;4479618;32;34336;-85
2023/06/24 01:46:28;;;;;;;;;;;;;;;19.10;85.86;99999.66;4471486;32;34856;-86
2023/06/24 01:48:58;;;;;;;;;;;;;;;19.14;85.49;99993.59;4484508;31;33976;-86
2023/06/24 01:51:25;;;;;;;;;;;;;;;19.21;84.31;99995.44;4454151;31;869581;-84
2023/06/24 01:53:54;;;;;;;;;;;;;;;19.04;84.71;99988.25;4475216;32;34063;-84
2023/06/24 01:56:21;;;;;;;;;;;;;;;19.17;84.09;99989.25;4486678;32;34660;-85
2023/06/24 01:58:50;;;;;;;;;;;;;;;19.39;82.59;99985.19;4483815;31;34149;-86
2023/06/24 02:01:17;;;;;;;;;;;;;;;19.45;81.91;99985.25;4482488;31;34711;-86
2023/06/24 02:03:45;;;;;;;;;;;;;;;19.30;82.59;99974.56;4482883;32;34184;-85
2023/06/24 02:06:12;;;;;;;;;;;;;;;19.34;82.36;99971.09;4478484;31;34747;-86
2023/06/24 02:08:40;;;;;;;;;;;;;;;19.19;82.92;99965.66;4492432;31;34096;-84
2023/06/24 02:11:07;;;;;;;;;;;;;;;19.06;82.77;99972.50;4486162;31;34969;-86
2023/06/24 02:13:35;;;;;;;;;;;;;;;18.95;83.92;99971.47;4489667;31;34534;-84
2023/06/24 02:16:03;;;;;;;;;;;;;;;19.12;83.26;99969.94;4484596;31;33875;-84
2023/06/24 02:18:30;;;;;;;;;;;;;;;18.99;83.34;99983.78;4477764;32;34034;-84
2023/06/24 02:20:58;;;;;;;;;;;;;;;18.83;84.01;99998.41;4458839;32;32733;-85
2023/06/24 02:23:25;;;;;;;;;;;;;;;19.21;82.84;99995.44;4484308;32;34284;-84
2023/06/24 02:25:53;;;;;;;;;;;;;;;19.81;79.52;99985.66;4485491;31;33974;-85
2023/06/24 02:28:20;;;;;;;;;;;;;;;19.48;81.15;99988.78;4486692;31;33356;-84
2023/06/24 02:30:47;;;;;;;;;;;;;;;19.60;79.89;99978.37;4488939;31;34644;-87
2023/06/24 02:33:15;;;;;;;;;;;;;;;19.43;80.22;99986.97;4488569;31;34616;-84
2023/06/24 02:35:45;;;;;;;;;;;;;;;19.77;78.80;99997.88;4482223;31;34701;-87
2023/06/24 02:38:12;;;;;;;;;;;;;;;19.75;79.21;99998.75;4471868;32;33929;-84
2023/06/24 02:40:40;;;;;;;;;;;;;;;19.41;80.12;99995.69;4482084;31;35000;-86
2023/06/24 02:43:07;;;;;;;;;;;;;;;18.88;83.94;99999.38;4470548;32;34991;-86
2023/06/24 02:45:36;;;;;;;;;;;;;;;19.15;83.22;100003.25;4484799;31;34815;-85
2023/06/24 02:48:04;;;;;;;;;;;;;;;18.84;85.03;99994.94;4470249;32;34101;-86
2023/06/24 02:50:31;;;;;;;;;;;;;;;18.85;85.00;99997.59;4492165;31;34781;-86
2023/06/24 02:52:59;;;;;;;;;;;;;;;18.35;87.55;100002.91;4490146;31;33562;-85
2023/06/24 02:55:27;;;;;;;;;;;;;;;19.07;84.12;100007.53;4473740;32;33727;-85
2023/06/24 02:57:54;;;;;;;;;;;;;;;19.21;82.65;100004.19;4484292;31;33058;-87
2023/06/24 03:00:23;;;;;;;;;;;;;;;18.95;83.14;100009.13;4487621;31;34147;-86
2023/06/24 03:02:52;;;;;;;;;;;;;;;19.15;82.91;100016.37;4490699;31;33543;-85
2023/06/24 03:05:22;;;;;;;;;;;;;;;19.16;82.37;100020.75;4482657;31;33696;-85
2023/06/24 03:07:50;;;;;;;;;;;;;;;19.13;83.11;100024.22;4487844;31;34096;-84
2023/06/24 03:10:17;;;;;;;;;;;;;;;19.18;82.85;100021.66;4479959;32;33699;-86
2023/06/24 03:12:44;;;;;;;;;;;;;;;19.17;82.74;100033.91;4487399;31;34769;-86
2023/06/24 03:15:13;;;;;;;;;;;;;;;19.02;82.42;100020.56;4496357;31;34410;-86
2023/06/24 03:17:40;;;;;;;;;;;;;;;18.67;84.25;100023.53;4495325;31;33504;-86
2023/06/24 03:20:08;;;;;;;;;;;;;;;18.78;84.22;100014.06;4484417;31;34701;-85
2023/06/24 03:22:35;;;;;;;;;;;;;;;18.61;84.64;100021.69;4492269;31;33861;-85
2023/06/24 03:25:10;;;;;;;;;;;;;;;18.74;83.46;100019.28;4484241;31;34664;-85
2023/06/24 03:27:37;;;;;;;;;;;;;;;18.78;82.37;100013.19;4484307;31;32654;-84
2023/06/24 03:30:05;;;;;;;;;;;;;;;18.91;81.44;100023.06;4469965;32;33383;-85
2023/06/24 03:32:36;;;;;;;;;;;;;;;19.00;81.25;100030.16;4492331;31;34944;-85
2023/06/24 03:35:04;;;;;;;;;;;;;;;19.14;81.02;100019.84;4488707;31;33998;-84
2023/06/24 03:37:31;;;;;;;;;;;;;;;19.04;80.58;100025.00;4484538;31;33434;-85
2023/06/24 03:39:59;;;;;;;;;;;;;;;18.75;81.94;100034.13;4484602;31;33688;-84
2023/06/24 03:42:28;;;;;;;;;;;;;;;18.88;80.91;100033.50;4484281;32;34736;-84
2023/06/24 03:44:56;;;;;;;;;;;;;;;18.83;80.94;100024.66;4484495;31;35494;-83
2023/06/24 03:47:23;;;;;;;;;;;;;;;18.72;81.23;100039.34;4484317;31;33431;-85
2023/06/24 03:49:50;;;;;;;;;;;;;;;18.83;81.35;100050.91;4484632;31;34998;-85
2023/06/24 03:52:18;;;;;;;;;;;;;;;18.87;81.09;100050.09;4483988;32;33894;-83
2023/06/24 03:54:46;;;;;;;;;;;;;;;18.82;81.15;100062.28;4484146;31;33504;-84
2023/06/24 03:57:13;;;;;;;;;;;;;;;18.78;81.48;100063.94;4484034;31;34050;-84
2023/06/24 03:59:40;;;;;;;;;;;;;;;18.63;81.33;100069.81;4485196;31;33905;-83
2023/06/24 04:02:08;;;;;;;;;;;;;;;18.85;80.34;100081.59;4484159;31;34680;-85
2023/06/24 04:04:35;;;;;;;;;;;;;;;19.03;79.99;100080.09;4487968;31;34845;-83
2023/06/24 04:07:05;;;;;;;;;;;;;;;18.99;79.75;100079.16;4493647;31;34157;-85
2023/06/24 04:09:33;;;;;;;;;;;;;;;18.81;80.69;100089.38;4486571;31;33809;-86
2023/06/24 04:12:01;;;;;;;;;;;;;;;19.05;79.40;100096.75;4485115;31;34319;-85
2023/06/24 04:14:30;;;;;;;;;;;;;;;18.78;80.33;100094.56;4481423;31;34034;-84
2023/06/24 04:16:57;;;;;;;;;;;;;;;19.01;78.23;100093.19;4494143;31;33313;-84
2023/06/24 04:19:25;;;;;;;;;;;;;;;18.88;78.19;100091.25;4485769;31;34972;-86
2023/06/24 04:21:52;;;;;;;;;;;;;;;19.12;77.51;100087.22;4483863;31;33903;-84
2023/06/24 04:24:20;;;;;;;;;;;;;;;18.90;78.19;100089.53;4486599;31;34020;-86
2023/06/24 04:26:47;;;;;;;;;;;;;;;18.96;77.91;100092.25;4475536;32;31846;-85
2023/06/24 04:29:15;;;;;;;;;;;;;;;18.93;78.25;100094.84;4485680;31;34975;-84
2023/06/24 04:31:43;;;;;;;;;;;;;;;19.02;77.84;100084.44;4490761;31;34107;-84
2023/06/24 04:34:10;;;;;;;;;;;;;;;18.71;79.24;100087.44;4491961;31;32543;-86
2023/06/24 04:36:38;;;;;;;;;;;;;;;19.18;76.47;100089.94;4487868;31;32003;-83
2023/06/24 04:39:06;;;;;;;;;;;;;;;19.25;76.06;100097.03;4492998;31;34220;-83
2023/06/24 04:41:33;;;;;;;;;;;;;;;18.89;77.26;100102.63;4493721;31;33812;-85
2023/06/24 04:44:00;;;;;;;;;;;;;;;18.85;78.87;100097.34;4490062;31;34023;-84
2023/06/24 04:46:29;;;;;;;;;;;;;;;19.12;77.57;100101.22;4488232;31;33292;-84
2023/06/24 04:48:56;;;;;;;;;;;;;;;18.72;79.61;100087.47;4476182;32;32585;-85
2023/06/24 04:51:24;;;;;;;;;;;;;;;18.94;77.94;100077.34;4494711;31;32802;-84
2023/06/24 04:53:51;;;;;;;;;;;;;;;19.03;77.96;100078.34;4480042;31;33634;-84
2023/06/24 04:56:18;;;;;;;;;;;;;;;19.02;77.36;100086.19;4493696;31;33533;-83
2023/06/24 04:58:45;;;;;;;;;;;;;;;19.09;76.76;100095.06;4493319;31;34888;-84
2023/06/24 05:01:13;;;;;;;;;;;;;;;19.23;76.14;100093.50;4488677;31;34190;-83
2023/06/24 05:03:41;;;;;;;;;;;;;;;18.94;78.01;100083.47;4490543;31;34457;-82
2023/06/24 05:06:08;;;;;;;;;;;;;;;19.25;76.00;100087.41;4497560;31;34204;-83
2023/06/24 05:08:35;;;;;;;;;;;;;;;19.10;76.83;100094.19;4488943;31;33925;-83
2023/06/24 05:11:03;;;;;;;;;;;;;;;19.13;77.29;100091.63;4495529;31;34858;-83
2023/06/24 05:13:30;;;;;;;;;;;;;;;19.09;76.52;100084.56;4486650;31;33756;-83
2023/06/24 05:15:57;;;;;;;;;;;;;;;19.15;75.86;100090.78;4482045;32;31773;-83
2023/06/24 05:18:25;;;;;;;;;;;;;;;19.12;76.17;100080.22;4491192;31;34059;-84
2023/06/24 05:20:52;;;;;;;;;;;;;;;19.09;76.75;100089.81;4493990;31;33259;-84
2023/06/24 05:23:19;;;;;;;;;;;;;;;19.23;75.47;100088.25;4487501;31;34177;-85
2023/06/24 05:25:47;;;;;;;;;;;;;;;19.29;75.83;100088.34;4484753;32;33152;-83
2023/06/24 05:28:14;;;;;;;;;;;;;;;19.72;74.37;100093.31;4484366;32;34719;-85
2023/06/24 05:30:41;;;;;;;;;;;;;;;19.58;75.15;100093.09;4484286;32;34854;-84
2023/06/24 05:33:09;;;;;;;;;;;;;;;19.93;73.86;100087.41;4484121;32;34449;-84
2023/06/24 05:35:39;;;;;;;;;;;;;;;19.69;74.39;100094.13;4484241;32;33208;-83
2023/06/24 05:38:07;;;;;;;;;;;;;;;19.63;74.18;100094.06;4484324;32;33943;-85
2023/06/24 05:40:34;;;;;;;;;;;;;;;19.89;73.97;100101.41;4484185;32;34100;-84
2023/06/24 05:43:02;;;;;;;;;;;;;;;19.78;73.90;100099.53;4494694;31;34055;-83
2023/06/24 05:45:30;;;;;;;;;;;;;;;19.67;73.70;100101.13;4485826;31;34211;-85
2023/06/24 05:47:57;;;;;;;;;;;;;;;19.79;73.51;100105.66;4482223;32;34607;-85
2023/06/24 05:50:24;;;;;;;;;;;;;;;19.82;72.78;100106.59;4490758;31;34911;-85
2023/06/24 05:52:52;;;;;;;;;;;;;;;19.95;72.81;100106.72;4489583;31;34278;-85
2023/06/24 05:55:19;;;;;;;;;;;;;;;20.08;72.68;100113.00;4484128;31;33088;-84
2023/06/24 05:57:46;;;;;;;;;;;;;;;19.98;73.25;100125.19;4485843;31;34814;-84
2023/06/24 06:00:14;;;;;;;;;;;;;;;19.97;72.61;100118.13;4483918;32;33977;-84
2023/06/24 06:02:42;;;;;;;;;;;;;;;20.00;73.77;100134.84;4492084;31;34405;-83
2023/06/24 06:05:09;;;;;;;;;;;;;;;20.17;71.22;100119.25;4473841;32;34057;-86
2023/06/24 06:07:39;;;;;;;;;;;;;;;20.13;71.81;100117.47;4489231;31;34196;-84
2023/06/24 06:10:06;;;;;;;;;;;;;;;20.19;71.85;100133.31;4484586;32;33678;-85
2023/06/24 06:12:34;;;;;;;;;;;;;;;20.52;71.62;100136.28;4492192;31;34329;-85
2023/06/24 06:15:01;;;;;;;;;;;;;;;20.49;71.14;100126.59;4489673;31;33217;-84
2023/06/24 06:17:28;;;;;;;;;;;;;;;20.58;70.25;100139.84;4484297;31;33943;-83
2023/06/24 06:19:56;;;;;;;;;;;;;;;20.39;71.14;100127.38;4492051;31;33781;-86
2023/06/24 06:22:23;;;;;;;;;;;;;;;20.48;71.62;100150.28;4483867;32;34084;-85
2023/06/24 06:24:50;;;;;;;;;;;;;;;20.96;70.30;100155.13;4483560;31;33738;-87
2023/06/24 06:27:18;;;;;;;;;;;;;;;20.98;69.78;100148.13;4495563;31;34048;-84
2023/06/24 06:29:45;;;;;;;;;;;;;;;20.42;72.18;100143.19;4483558;31;34197;-84
2023/06/24 06:32:12;;;;;;;;;;;;;;;20.96;72.12;100155.13;4491533;31;34352;-85
2023/06/24 06:34:39;;;;;;;;;;;;;;;20.80;70.73;100147.94;4493067;31;33750;-83
2023/06/24 06:37:07;;;;;;;;;;;;;;;20.92;69.80;100147.16;4489190;31;34003;-84
2023/06/24 06:39:34;;;;;;;;;;;;;;;20.90;70.31;100155.09;4484310;31;32336;-83
2023/06/24 06:42:01;;;;;;;;;;;;;;;20.51;71.54;100150.28;4485812;32;34951;-84
2023/06/24 06:44:29;;;;;;;;;;;;;;;20.91;69.38;100151.56;4485672;32;33430;-85
2023/06/24 06:46:56;;;;;;;;;;;;;;;21.24;71.45;100150.06;4485709;31;34297;-85
2023/06/24 06:49:23;;;;;;;;;;;;;;;21.71;69.22;100153.88;4485857;31;34186;-86
2023/06/24 06:51:53;;;;;;;;;;;;;;;21.79;68.39;100150.41;4485242;32;34835;-87
2023/06/24 06:54:21;;;;;;;;;;;;;;;22.01;68.40;100155.78;4486013;31;33450;-86
2023/06/24 06:56:48;;;;;;;;;;;;;;;21.91;68.82;100148.72;4492017;31;34689;-84
2023/06/24 06:59:15;;;;;;;;;;;;;;;21.86;67.05;100150.44;4489351;31;33701;-85
2023/06/24 07:01:42;;;;;;;;;;;;;;;21.86;68.52;100155.72;4488991;31;34314;-84
2023/06/24 07:04:10;;;;;;;;;;;;;;;22.31;66.87;100148.84;4494756;31;33972;-86
2023/06/24 07:06:37;;;;;;;;;;;;;;;22.19;66.70;100145.31;4487224;31;34417;-86
2023/06/24 07:09:04;;;;;;;;;;;;;;;22.34;66.89;100148.87;4486055;31;34212;-85
2023/06/24 07:11:32;;;;;;;;;;;;;;;22.36;66.78;100141.84;4491109;31;34027;-86
2023/06/24 07:13:59;;;;;;;;;;;;;;;22.22;66.70;100143.53;4496678;31;33371;-87
2023/06/24 07:16:27;;;;;;;;;;;;;;;22.00;67.73;100135.56;4490310;31;33899;-87
2023/06/24 07:18:54;;;;;;;;;;;;;;;22.35;66.36;100140.09;4486071;31;34181;-84
2023/06/24 07:21:22;;;;;;;;;;;;;;;22.12;67.54;100135.59;4487533;31;34692;-86
2023/06/24 07:23:49;;;;;;;;;;;;;;;22.50;66.98;100148.03;4485545;32;34270;-86
2023/06/24 07:26:17;;;;;;;;;;;;;;;22.31;66.56;100143.56;4485494;31;33619;-84
2023/06/24 07:28:44;;;;;;;;;;;;;;;22.59;65.05;100147.16;4480733;32;32617;-87
2023/06/24 07:31:26;;;;;;;;;;;;;;;22.85;65.10;100147.19;4488389;31;35041;-84
2023/06/24 07:33:54;;;;;;;;;;;;;;;22.37;66.60;100148.91;4494612;31;32849;-87
2023/06/24 07:36:21;;;;;;;;;;;;;;;22.29;65.69;100142.69;4485134;32;34134;-85
2023/06/24 07:38:48;;;;;;;;;;;;;;;22.88;65.68;100157.75;4478895;31;33292;-84
2023/06/24 07:41:16;;;;;;;;;;;;;;;22.11;66.61;100160.19;4491990;31;35407;-83
2023/06/24 07:43:43;;;;;;;;;;;;;;;22.73;66.23;100176.22;4485059;31;33109;-86
2023/06/24 07:46:10;;;;;;;;;;;;;;;23.22;63.98;100178.00;4485235;31;34737;-84
2023/06/24 07:48:38;;;;;;;;;;;;;;;22.63;66.37;100169.16;4476565;31;34272;-85
2023/06/24 07:51:05;;;;;;;;;;;;;;;23.05;65.77;100185.97;4496063;31;34226;-85
2023/06/24 07:53:33;;;;;;;;;;;;;;;23.56;63.04;100170.91;4485645;31;33153;-86
2023/06/24 07:56:00;;;;;;;;;;;;;;;24.16;62.91;100164.56;4486905;31;34220;-86
2023/06/24 07:58:27;;;;;;;;;;;;;;;24.59;58.69;100164.31;4488679;31;33798;-86
2023/06/24 08:00:55;;;;;;;;;;;;;;;24.76;57.00;100172.16;4490472;31;34875;-84
2023/06/24 08:03:22;;;;;;;;;;;;;;;24.73;58.33;100173.94;4486596;31;33105;-85
2023/06/24 08:05:50;;;;;;;;;;;;;;;25.33;56.05;100174.38;4492758;31;34773;-86
2023/06/24 08:08:19;;;;;;;;;;;;;;;25.72;55.21;100177.50;4487800;31;32948;-86
2023/06/24 08:10:47;;;;;;;;;;;;;;;25.86;54.06;100175.56;4498297;31;33639;-84
2023/06/24 08:13:14;;;;;;;;;;;;;;;26.07;54.05;100183.28;4490382;31;33962;-86
2023/06/24 08:15:41;;;;;;;;;;;;;;;25.97;52.48;100176.34;4485378;31;34831;-84
2023/06/24 08:18:09;;;;;;;;;;;;;;;25.34;54.23;100179.66;4493762;31;35026;-84
2023/06/24 08:20:36;;;;;;;;;;;;;;;25.39;55.12;100190.22;4486061;31;34199;-86
2023/06/24 08:23:04;;;;;;;;;;;;;;;25.48;55.05;100182.19;4488608;31;33516;-84
2023/06/24 08:25:31;;;;;;;;;;;;;;;26.43;54.28;100189.00;4497542;31;34861;-85
2023/06/24 08:27:58;;;;;;;;;;;;;;;25.99;52.42;100174.53;4485923;31;33732;-86
2023/06/24 08:30:26;;;;;;;;;;;;;;;25.77;54.15;100180.97;4494092;31;34601;-84
2023/06/24 08:32:53;;;;;;;;;;;;;;;25.69;56.37;100184.59;4488057;31;33074;-87
2023/06/24 08:35:21;;;;;;;;;;;;;;;25.87;54.86;100172.03;4486458;31;35044;-83
2023/06/24 08:37:48;;;;;;;;;;;;;;;25.93;53.68;100177.28;4490661;31;33897;-85
2023/06/24 08:40:16;;;;;;;;;;;;;;;26.50;52.62;100179.16;4472185;32;34292;-86
2023/06/24 08:42:45;;;;;;;;;;;;;;;26.49;52.03;100182.72;4475019;31;33208;-85
2023/06/24 08:45:13;;;;;;;;;;;;;;;26.23;52.28;100176.03;4492536;31;34854;-84
2023/06/24 08:47:41;;;;;;;;;;;;;;;25.04;56.07;100170.19;4485411;31;33772;-84
2023/06/24 08:50:11;;;;;;;;;;;;;;;24.61;57.51;100174.03;4470831;32;33665;-86
2023/06/24 08:52:38;;;;;;;;;;;;;;;24.56;58.14;100185.56;4491767;31;34025;-83
2023/06/24 08:55:06;;;;;;;;;;;;;;;23.77;60.22;100193.78;4468534;31;32579;-85
2023/06/24 08:57:34;;;;;;;;;;;;;;;22.96;63.23;100197.38;4486126;31;34263;-86
2023/06/24 09:00:01;;;;;;;;;;;;;;;23.83;60.92;100203.50;4474781;31;34458;-87
2023/06/24 09:02:30;;;;;;;;;;;;;;;23.83;59.25;100198.22;4490303;31;33459;-87
2023/06/24 09:04:57;;;;;;;;;;;;;;;23.68;59.81;100189.41;4497141;31;33803;-86
2023/06/24 09:07:30;;;;;;;;;;;;;;;23.45;60.12;100180.63;4490574;31;34134;-86
2023/06/24 09:09:58;;;;;;;;;;;;;;;23.15;62.16;100179.78;4478060;31;32478;-83
2023/06/24 09:12:26;;;;;;;;;;;;;;;23.32;62.70;100185.94;4479165;32;33142;-83
2023/06/24 09:14:53;;;;;;;;;;;;;;;22.82;65.57;100188.56;4494205;31;34781;-85
2023/06/24 09:17:22;;;;;;;;;;;;;;;23.23;64.39;100172.72;4498467;31;34206;-85
2023/06/24 09:19:50;;;;;;;;;;;;;;;23.32;62.72;100180.66;4484274;32;34081;-84
2023/06/24 09:22:18;;;;;;;;;;;;;;;23.19;65.15;100178.91;4484333;31;33459;-85
2023/06/24 09:24:46;;;;;;;;;;;;;;;23.58;62.42;100187.66;4484325;32;35687;-85
2023/06/24 09:27:15;;;;;;;;;;;;;;;23.98;62.79;100198.16;4496630;31;34188;-85
2023/06/24 09:29:42;;;;;;;;;;;;;;;24.00;60.90;100191.09;4487228;31;33739;-85
2023/06/24 09:32:10;;;;;;;;;;;;;;;24.79;60.06;100183.63;4484064;32;34013;-85
2023/06/24 09:34:37;;;;;;;;;;;;;;;24.89;58.68;100187.94;4484378;31;34201;-83
2023/06/24 09:37:05;;;;;;;;;;;;;;;24.76;57.46;100183.63;4483981;32;33862;-85
2023/06/24 09:39:36;;;;;;;;;;;;;;;24.83;56.44;100188.00;4483910;31;34112;-84
2023/06/24 09:42:04;;;;;;;;;;;;;;;24.89;58.31;100182.66;4474524;31;32954;-84
2023/06/24 09:44:32;;;;;;;;;;;;;;;25.27;58.19;100177.97;4492445;31;34406;-87
2023/06/24 09:46:59;;;;;;;;;;;;;;;24.43;58.74;100164.41;4485436;31;34123;-84
2023/06/24 09:49:26;;;;;;;;;;;;;;;24.69;59.06;100172.22;4486680;31;34232;-84
2023/06/24 09:51:55;;;;;;;;;;;;;;;24.28;58.66;100172.44;4486771;31;33409;-85
2023/06/24 09:54:23;;;;;;;;;;;;;;;24.68;58.36;100181.03;4483970;31;34384;-85
2023/06/24 09:56:50;;;;;;;;;;;;;;;24.34;59.65;100175.06;4483929;32;33580;-85
2023/06/24 09:59:21;;;;;;;;;;;;;;;24.14;60.79;100173.41;4472117;31;33957;-85
2023/06/24 10:01:49;;;;;;;;;;;;;;;24.91;58.58;100178.22;4483497;32;34151;-86
2023/06/24 10:04:17;;;;;;;;;;;;;;;25.00;56.62;100160.50;4475000;31;34210;-85
2023/06/24 10:06:45;;;;;;;;;;;;;;;24.84;58.39;100159.72;4487047;31;33979;-86
2023/06/24 10:09:13;;;;;;;;;;;;;;;25.20;59.40;100155.87;4495605;31;34524;-83
2023/06/24 10:11:47;;;;;;;;;;;;;;;25.60;58.32;100162.59;4488518;31;33968;-85
2023/06/24 10:14:14;;;;;;;;;;;;;;;25.22;57.31;100161.19;4494450;31;34969;-84
2023/06/24 10:16:42;;;;;;;;;;;;;;;24.77;59.02;100164.22;4499919;31;34066;-85
2023/06/24 10:19:10;;;;;;;;;;;;;;;24.78;59.03;100155.34;4482835;31;34690;-85
2023/06/24 10:21:46;;;;;;;;;;;;;;;25.23;58.40;100155.91;4489558;31;34211;-83
2023/06/24 10:24:25;;;;;;;;;;;;;;;24.95;56.92;100154.34;4488753;31;33898;-83
2023/06/24 10:26:53;;;;;;;;;;;;;;;24.54;57.19;100156.44;4480920;31;33870;-83
2023/06/24 10:29:30;;;;;;;;;;;;;;;24.81;58.19;100154.47;4462097;31;34845;-84
2023/06/24 10:32:01;;;;;;;;;;;;;;;25.01;57.14;100151.66;4494194;31;33263;-85
2023/06/24 10:34:38;;;;;;;;;;;;;;;24.86;58.14;100153.56;4481627;31;33270;-84
2023/06/24 10:37:10;;;;;;;;;;;;;;;25.13;58.27;100138.31;4500060;31;33976;-84
2023/06/24 10:39:37;;;;;;;;;;;;;;;25.25;56.20;100140.84;4486874;31;35035;-86
2023/06/24 10:42:23;;;;;;;;;;;;;;;25.04;56.91;100146.34;4485721;32;33557;-87
2023/06/24 10:44:53;;;;;;;;;;;;;;;25.42;57.08;100142.44;4485560;32;34227;-83
2023/06/24 10:47:21;;;;;;;;;;;;;;;25.45;55.46;100139.78;4476233;31;34181;-85
2023/06/24 10:49:49;;;;;;;;;;;;;;;25.32;57.40;100141.66;4485667;32;34314;-85
2023/06/24 10:52:23;;;;;;;;;;;;;;;25.68;56.25;100140.38;4475954;32;31791;-84
2023/06/24 10:54:51;;;;;;;;;;;;;;;25.75;54.87;100140.31;4488672;31;34201;-85
2023/06/24 10:57:23;;;;;;;;;;;;;;;26.36;54.18;100150.16;4492722;31;34898;-84
2023/06/24 10:59:50;;;;;;;;;;;;;;;26.06;53.90;100141.72;4491078;31;34222;-84
2023/06/24 11:02:19;;;;;;;;;;;;;;;25.41;56.33;100151.31;4490215;31;34061;-85
2023/06/24 11:04:46;;;;;;;;;;;;;;;25.91;54.48;100157.84;4486911;31;33920;-83
2023/06/24 11:07:14;;;;;;;;;;;;;;;26.31;55.00;100154.66;4489468;31;34624;-85
2023/06/24 11:09:42;;;;;;;;;;;;;;;26.59;54.07;100146.31;4486390;31;34305;-83
2023/06/24 11:12:10;;;;;;;;;;;;;;;26.16;54.70;100146.91;4487482;31;33292;-83
2023/06/24 11:14:40;;;;;;;;;;;;;;;25.85;56.57;100149.94;4491654;31;33958;-84
2023/06/24 11:17:07;;;;;;;;;;;;;;;25.62;58.13;100151.06;4494102;31;35037;-84
2023/06/24 11:19:38;;;;;;;;;;;;;;;25.73;57.27;100155.37;4471847;32;33664;-85
2023/06/24 11:22:06;;;;;;;;;;;;;;;25.70;57.91;100149.19;4489455;31;33211;-84
2023/06/24 11:24:34;;;;;;;;;;;;;;;24.73;60.63;100151.88;4477720;31;34748;-83
2023/06/24 11:27:02;;;;;;;;;;;;;;;25.38;58.94;100156.63;4489591;31;34111;-83
2023/06/24 11:29:32;;;;;;;;;;;;;;;24.66;62.00;100155.47;4486249;31;34177;-83
2023/06/24 11:32:03;;;;;;;;;;;;;;;24.97;60.14;100150.78;4493907;31;34426;-84
2023/06/24 11:34:30;;;;;;;;;;;;;;;24.97;59.91;100144.63;4492695;31;34766;-82
2023/06/24 11:36:57;;;;;;;;;;;;;;;24.65;60.13;100145.78;4489502;31;34196;-84
2023/06/24 11:39:25;;;;;;;;;;;;;;;25.45;59.38;100131.81;4492571;31;34806;-82
2023/06/24 11:41:53;;;;;;;;;;;;;;;26.07;56.48;100121.34;4488129;31;33938;-82
2023/06/24 11:44:20;;;;;;;;;;;;;;;26.29;54.18;100113.97;4489032;31;32349;-82
2023/06/24 11:46:48;;;;;;;;;;;;;;;25.83;54.74;100119.88;4487280;31;33791;-82
2023/06/24 11:49:16;;;;;;;;;;;;;;;26.17;56.08;100117.66;4491710;31;34927;-84
2023/06/24 11:51:47;;;;;;;;;;;;;;;26.38;54.86;100099.66;4474710;31;33375;-83
2023/06/24 11:54:19;;;;;;;;;;;;;;;26.12;55.34;100108.03;4488836;31;34306;-82
2023/06/24 11:56:51;;;;;;;;;;;;;;;26.34;54.82;100096.19;4486296;31;34724;-82
2023/06/24 11:59:22;;;;;;;;;;;;;;;26.22;54.45;100104.34;4475777;31;34182;-83
2023/06/24 12:01:54;;;;;;;;;;;;;;;25.81;58.31;100103.09;4490594;31;33180;-83
2023/06/24 12:04:21;;;;;;;;;;;;;;;25.99;58.25;100094.91;4491235;31;34223;-83
2023/06/24 12:06:49;;;;;;;;;;;;;;;25.89;57.39;100093.25;4475126;32;34207;-84
2023/06/24 12:09:16;;;;;;;;;;;;;;;25.79;57.34;100083.69;4492176;31;33872;-84
2023/06/24 12:11:44;;;;;;;;;;;;;;;25.84;56.93;100092.44;4493340;31;32873;-83
2023/06/24 12:14:11;;;;;;;;;;;;;;;25.63;59.53;100097.13;4479568;32;34286;-85
2023/06/24 12:16:39;;;;;;;;;;;;;;;25.93;58.40;100087.03;4493648;31;33799;-84
2023/06/24 12:19:07;;;;;;;;;;;;;;;25.90;55.45;100093.25;4477527;31;34176;-82
2023/06/24 12:21:35;;;;;;;;;;;;;;;26.10;56.07;100089.47;4495763;31;34112;-81
2023/06/24 12:24:02;;;;;;;;;;;;;;;26.11;56.01;100087.69;4480349;31;34683;-82
2023/06/24 12:26:30;;;;;;;;;;;;;;;26.07;57.34;100085.06;4478641;31;35006;-82
2023/06/24 12:28:57;;;;;;;;;;;;;;;26.57;55.62;100089.62;4487945;31;35002;-83
2023/06/24 12:31:24;;;;;;;;;;;;;;;26.78;54.56;100091.97;4473035;32;32722;-83
2023/06/24 12:33:52;;;;;;;;;;;;;;;26.16;55.41;100083.19;4488858;31;33845;-83
2023/06/24 12:36:22;;;;;;;;;;;;;;;26.04;55.86;100079.81;4484939;32;35062;-82
2023/06/24 12:38:49;;;;;;;;;;;;;;;26.04;57.60;100095.75;4484984;32;34903;-83
2023/06/24 12:41:18;;;;;;;;;;;;;;;25.80;57.75;100085.41;4485422;32;33592;-82
2023/06/24 12:43:45;;;;;;;;;;;;;;;26.09;58.91;100077.06;4486618;31;34320;-82